createdAt,value
2023-02-15T00:01:45.219Z,55.00
2023-02-15T00:04:15.487Z,55.43
2023-02-15T00:06:44.497Z,49.83
2023-02-15T00:09:12.983Z,51.17
2023-02-15T00:11:50.602Z,54.50
2023-02-15T00:14:22.067Z,51.83
2023-02-15T00:16:51.360Z,54.70
2023-02-15T00:19:21.277Z,47.87
2023-02-15T00:21:50.881Z,53.20
2023-02-15T00:24:20.278Z,56.03
2023-02-15T00:26:49.166Z,49.07
2023-02-15T00:29:18.898Z,55.63
2023-02-15T00:31:46.584Z,48.90
2023-02-15T00:34:16.550Z,51.63
2023-02-15T00:36:44.568Z,53.43
2023-02-15T00:39:14.442Z,47.60
2023-02-15T00:41:42.422Z,46.20
2023-02-15T00:44:10.676Z,49.50
2023-02-15T00:46:38.575Z,52.70
2023-02-15T00:49:06.813Z,48.13
2023-02-15T00:51:34.748Z,53.50
2023-02-15T00:54:02.863Z,50.73
2023-02-15T00:56:32.320Z,49.23
2023-02-15T00:59:00.037Z,51.53
2023-02-15T01:01:28.301Z,50.73
2023-02-15T01:03:56.016Z,51.37
2023-02-15T01:06:23.786Z,53.07
2023-02-15T01:08:51.460Z,48.80
2023-02-15T01:14:12.496Z,45.73
2023-02-15T01:16:40.276Z,43.57
2023-02-15T01:19:08.115Z,47.50
2023-02-15T01:21:36.182Z,44.87
2023-02-15T01:24:04.682Z,47.17
2023-02-15T01:26:32.350Z,47.03
2023-02-15T01:29:00.313Z,46.97
2023-02-15T01:31:29.340Z,47.50
2023-02-15T01:33:57.094Z,43.97
2023-02-15T01:36:24.765Z,43.93
2023-02-15T01:38:53.321Z,42.07
2023-02-15T01:41:28.531Z,43.60
2023-02-15T01:43:57.989Z,41.07
2023-02-15T01:46:35.375Z,47.57
2023-02-15T01:49:11.032Z,45.13
2023-02-15T01:51:41.750Z,41.43
2023-02-15T01:54:13.128Z,38.83
2023-02-15T01:56:43.033Z,42.87
2023-02-15T01:59:16.757Z,45.20
2023-02-15T02:01:46.364Z,42.30
2023-02-15T02:04:19.380Z,46.20
2023-02-15T02:06:50.342Z,43.20
2023-02-15T02:09:18.041Z,42.93
2023-02-15T02:11:48.557Z,47.17
2023-02-15T02:14:17.305Z,47.67
2023-02-15T02:16:55.771Z,43.70
2023-02-15T02:19:53.207Z,46.00
2023-02-15T02:22:54.412Z,40.90
2023-02-15T02:25:54.379Z,42.47
2023-02-15T02:28:48.131Z,42.70
2023-02-15T02:31:34.562Z,43.73
2023-02-15T02:34:07.983Z,44.77
2023-02-15T02:36:43.207Z,52.30
2023-02-15T02:39:28.411Z,46.67
2023-02-15T02:42:02.701Z,43.93
2023-02-15T02:44:37.175Z,48.27
2023-02-15T02:47:13.870Z,50.90
2023-02-15T02:49:44.718Z,46.00
2023-02-15T02:52:37.653Z,49.23
2023-02-15T02:55:08.929Z,47.10
2023-02-15T02:57:42.572Z,49.40
2023-02-15T03:00:11.535Z,49.33
2023-02-15T03:02:43.297Z,45.67
2023-02-15T03:05:18.377Z,47.37
2023-02-15T03:07:51.984Z,48.30
2023-02-15T03:10:22.723Z,56.07
2023-02-15T03:12:53.706Z,45.27
2023-02-15T03:15:24.101Z,48.83
2023-02-15T03:17:57.588Z,53.50
2023-02-15T03:20:31.804Z,50.77
2023-02-15T03:23:07.620Z,46.90
2023-02-15T03:25:40.661Z,45.53
2023-02-15T03:28:11.432Z,45.43
2023-02-15T03:30:42.084Z,51.17
2023-02-15T03:33:11.842Z,47.77
2023-02-15T03:35:47.503Z,50.67
2023-02-15T03:38:22.629Z,48.70
2023-02-15T03:41:08.648Z,45.23
2023-02-15T03:43:44.102Z,45.07
2023-02-15T03:46:18.397Z,46.83
2023-02-15T03:48:50.082Z,47.43
2023-02-15T03:51:37.424Z,45.53
2023-02-15T03:54:08.651Z,43.70
2023-02-15T03:56:38.794Z,49.07
2023-02-15T03:59:24.254Z,46.07
2023-02-15T04:02:01.502Z,49.03
2023-02-15T04:04:35.266Z,46.93
2023-02-15T04:07:06.660Z,45.67
2023-02-15T04:09:52.202Z,50.20
2023-02-15T04:12:20.131Z,51.23
2023-02-15T04:15:05.236Z,51.83
2023-02-15T04:17:32.927Z,47.97
2023-02-15T04:20:18.272Z,44.87
2023-02-15T04:23:04.854Z,49.60
2023-02-15T04:25:32.546Z,46.80
2023-02-15T04:28:00.218Z,44.03
2023-02-15T04:30:28.377Z,45.70
2023-02-15T04:32:58.008Z,47.30
2023-02-15T04:35:26.655Z,47.07
2023-02-15T04:37:56.685Z,50.07
2023-02-15T04:40:24.429Z,49.83
2023-02-15T04:42:52.212Z,49.27
2023-02-15T04:45:19.938Z,48.13
2023-02-15T04:47:47.779Z,49.80
2023-02-15T04:50:15.511Z,50.03
2023-02-15T04:52:43.209Z,46.40
2023-02-15T04:55:12.223Z,46.67
2023-02-15T04:57:39.972Z,45.30
2023-02-15T05:00:09.930Z,48.03
2023-02-15T05:02:37.776Z,47.57
2023-02-15T05:05:05.713Z,47.57
2023-02-15T05:07:33.361Z,44.63
2023-02-15T05:10:01.051Z,46.67
2023-02-15T05:12:30.027Z,41.93
2023-02-15T05:14:57.634Z,46.47
2023-02-15T05:17:25.751Z,48.93
2023-02-15T05:19:53.441Z,48.60
2023-02-15T05:22:21.175Z,44.90
2023-02-15T05:25:06.595Z,48.43
2023-02-15T05:27:53.070Z,45.00
2023-02-15T05:30:21.008Z,44.80
2023-02-15T05:32:48.794Z,44.30
2023-02-15T05:35:17.686Z,46.33
2023-02-15T05:37:45.445Z,46.30
2023-02-15T05:40:13.658Z,49.40
2023-02-15T05:42:42.746Z,49.63
2023-02-15T05:45:10.802Z,48.90
2023-02-15T05:47:38.556Z,46.10
2023-02-15T05:50:07.504Z,50.87
2023-02-15T05:52:35.393Z,45.73
2023-02-15T05:55:03.583Z,50.77
2023-02-15T05:57:31.250Z,45.90
2023-02-15T06:00:00.248Z,50.37
2023-02-15T06:02:27.881Z,46.53
2023-02-15T06:04:55.525Z,47.13
2023-02-15T06:07:23.126Z,46.20
2023-02-15T06:09:50.757Z,50.77
2023-02-15T06:12:18.441Z,49.50
2023-02-15T06:14:46.134Z,49.77
2023-02-15T06:17:15.291Z,52.60
2023-02-15T06:19:42.966Z,48.43
2023-02-15T06:22:10.576Z,51.97
2023-02-15T06:24:38.211Z,48.50
2023-02-15T06:27:05.913Z,48.07
2023-02-15T06:29:33.534Z,50.50
2023-02-15T06:32:01.271Z,49.40
2023-02-15T06:34:30.475Z,47.73
2023-02-15T06:36:58.295Z,52.03
2023-02-15T06:39:26.076Z,48.80
2023-02-15T06:41:53.736Z,47.60
2023-02-15T06:44:21.432Z,45.30
2023-02-15T06:46:49.165Z,46.17
2023-02-15T06:49:16.895Z,53.53
2023-02-15T06:51:45.871Z,50.20
2023-02-15T06:54:13.585Z,49.20
2023-02-15T06:56:41.226Z,49.23
2023-02-15T06:59:08.850Z,45.77
2023-02-15T07:01:37.919Z,46.50
2023-02-15T07:04:05.965Z,52.63
2023-02-15T07:06:33.970Z,50.53
2023-02-15T07:09:03.007Z,50.13
2023-02-15T07:11:48.539Z,46.77
2023-02-15T07:14:16.282Z,51.07
2023-02-15T07:16:43.954Z,49.87
2023-02-15T07:19:11.862Z,48.40
2023-02-15T07:21:39.544Z,52.93
2023-02-15T07:24:08.796Z,50.47
2023-02-15T07:26:36.476Z,51.80
2023-02-15T07:29:04.191Z,59.47
2023-02-15T07:31:32.068Z,48.80
2023-02-15T07:33:59.791Z,52.87
2023-02-15T07:36:27.489Z,54.00
2023-02-15T07:38:55.125Z,57.53
2023-02-15T07:41:24.491Z,49.33
2023-02-15T07:43:52.148Z,52.43
2023-02-15T07:46:21.578Z,48.33
2023-02-15T07:48:49.908Z,54.07
2023-02-15T07:51:17.611Z,54.30
2023-02-15T07:53:45.640Z,50.30
2023-02-15T07:56:15.290Z,53.00
2023-02-15T07:58:53.180Z,55.03
2023-02-15T08:01:23.288Z,52.13
2023-02-15T08:03:51.749Z,52.13
2023-02-15T08:06:19.711Z,56.40
2023-02-15T08:08:47.415Z,51.73
2023-02-15T08:11:29.924Z,55.00
2023-02-15T08:14:01.231Z,50.40
2023-02-15T08:16:31.670Z,53.57
2023-02-15T08:19:00.787Z,52.20
2023-02-15T08:21:30.438Z,50.93
2023-02-15T08:23:58.981Z,51.37
2023-02-15T08:26:28.035Z,56.17
2023-02-15T08:28:56.196Z,58.33
2023-02-15T08:31:25.530Z,55.07
2023-02-15T08:33:55.766Z,57.07
2023-02-15T08:36:25.427Z,59.37
2023-02-15T08:38:53.354Z,53.57
2023-02-15T08:41:22.911Z,56.67
2023-02-15T08:43:54.516Z,56.77
2023-02-15T08:46:23.438Z,58.17
2023-02-15T08:48:53.399Z,58.53
2023-02-15T08:51:22.595Z,63.20
2023-02-15T08:53:51.877Z,56.30
2023-02-15T08:56:21.186Z,60.23
2023-02-15T08:58:48.984Z,64.73
2023-02-15T09:01:20.851Z,62.37
2023-02-15T09:03:50.669Z,57.03
2023-02-15T09:06:19.677Z,59.53
2023-02-15T09:08:47.420Z,59.37
2023-02-15T09:11:23.164Z,61.97
2023-02-15T09:13:53.485Z,66.90
2023-02-15T09:16:22.542Z,56.40
2023-02-15T09:18:51.283Z,61.70
2023-02-15T09:21:22.570Z,63.23
2023-02-15T09:23:53.020Z,66.27
2023-02-15T09:26:22.780Z,66.03
2023-02-15T09:28:56.400Z,68.17
2023-02-15T09:31:26.827Z,75.47
2023-02-15T09:33:55.394Z,69.93
2023-02-15T09:36:26.186Z,73.53
2023-02-15T09:38:58.187Z,70.33
2023-02-15T09:41:46.873Z,74.80
2023-02-15T09:44:25.340Z,70.33
2023-02-15T09:47:10.845Z,73.33
2023-02-15T09:49:45.900Z,76.50
2023-02-15T09:52:36.714Z,76.27
2023-02-15T09:55:23.268Z,80.90
2023-02-15T09:58:03.432Z,75.60
2023-02-15T10:00:43.531Z,74.83
2023-02-15T10:03:25.782Z,74.40
2023-02-15T10:06:07.591Z,77.03
2023-02-15T10:09:07.468Z,70.90
2023-02-15T10:11:50.926Z,84.13
2023-02-15T10:14:45.376Z,86.20
2023-02-15T10:17:26.855Z,80.30
2023-02-15T10:20:06.697Z,84.13
2023-02-15T10:22:44.415Z,80.07
2023-02-15T10:25:30.937Z,82.70
2023-02-15T10:28:04.168Z,80.93
2023-02-15T10:30:43.815Z,88.27
2023-02-15T10:33:21.071Z,77.33
2023-02-15T10:36:01.682Z,83.87
2023-02-15T10:38:39.213Z,77.87
2023-02-15T10:41:25.143Z,79.63
2023-02-15T10:44:12.540Z,83.70
2023-02-15T10:47:02.882Z,79.03
2023-02-15T10:49:48.048Z,69.83
2023-02-15T10:52:32.042Z,72.23
2023-02-15T10:55:09.875Z,79.10
2023-02-15T10:57:51.015Z,77.83
2023-02-15T11:00:23.463Z,70.23
2023-02-15T11:03:07.626Z,66.20
2023-02-15T11:05:43.595Z,77.10
2023-02-15T11:08:13.255Z,76.33
2023-02-15T11:10:44.964Z,79.57
2023-02-15T11:13:18.782Z,86.23
2023-02-15T11:15:51.098Z,86.70
2023-02-15T11:18:27.312Z,81.50
2023-02-15T11:20:58.702Z,87.90
2023-02-15T11:23:28.220Z,81.00
2023-02-15T11:25:59.865Z,85.27
2023-02-15T11:28:35.097Z,86.87
2023-02-15T11:31:13.593Z,82.40
2023-02-15T11:33:47.326Z,80.87
2023-02-15T11:36:19.415Z,92.93
2023-02-15T11:38:51.004Z,87.57
2023-02-15T11:41:25.073Z,91.20
2023-02-15T11:43:59.560Z,96.17
2023-02-15T11:46:27.444Z,96.43
2023-02-15T11:48:55.282Z,95.37
2023-02-15T11:51:24.704Z,106.17
2023-02-15T11:53:53.550Z,97.67
2023-02-15T11:56:24.037Z,108.07
2023-02-15T11:58:58.784Z,103.40
2023-02-15T12:01:32.750Z,102.97
2023-02-15T12:04:04.898Z,104.40
2023-02-15T12:06:36.110Z,106.10
2023-02-15T12:09:09.367Z,100.30
2023-02-15T12:11:39.240Z,106.47
2023-02-15T12:14:11.195Z,101.20
2023-02-15T12:16:48.449Z,119.07
2023-02-15T12:19:30.745Z,115.20
2023-02-15T12:22:00.252Z,118.77
2023-02-15T12:24:30.788Z,120.70
2023-02-15T12:27:02.534Z,131.03
2023-02-15T12:29:37.173Z,126.03
2023-02-15T12:32:05.504Z,124.97
2023-02-15T12:34:40.371Z,125.50
2023-02-15T12:37:16.812Z,145.13
2023-02-15T12:39:54.699Z,140.83
2023-02-15T12:42:22.805Z,136.20
2023-02-15T12:44:59.163Z,146.43
2023-02-15T12:47:29.251Z,133.07
2023-02-15T12:50:26.896Z,136.93
2023-02-15T12:53:08.921Z,138.60
2023-02-15T12:55:37.592Z,133.37
2023-02-15T12:58:16.359Z,128.63
2023-02-15T13:00:46.686Z,139.57
2023-02-15T13:03:20.434Z,137.60
2023-02-15T13:05:51.600Z,146.73
2023-02-15T13:08:22.450Z,142.40
2023-02-15T13:10:56.604Z,134.73
2023-02-15T13:13:27.375Z,136.73
2023-02-15T13:16:00.662Z,128.93
2023-02-15T13:18:33.517Z,138.83
2023-02-15T13:21:11.524Z,139.30
2023-02-15T13:23:41.792Z,142.03
2023-02-15T13:26:14.855Z,128.03
2023-02-15T13:28:46.457Z,122.87
2023-02-15T13:31:19.327Z,123.87
2023-02-15T13:33:51.270Z,123.13
2023-02-15T13:36:29.187Z,135.13
2023-02-15T13:39:17.490Z,123.17
2023-02-15T13:41:58.433Z,122.60
2023-02-15T13:44:43.584Z,132.43
2023-02-15T13:47:23.559Z,133.87
2023-02-15T13:50:10.250Z,129.47
2023-02-15T13:52:48.357Z,117.70
2023-02-15T13:55:28.374Z,127.63
2023-02-15T13:58:15.888Z,132.43
2023-02-15T14:00:49.851Z,135.17
2023-02-15T14:03:45.969Z,128.03
2023-02-15T14:06:29.582Z,129.90
2023-02-15T14:09:13.356Z,131.87
2023-02-15T14:11:50.423Z,119.57
2023-02-15T14:14:33.759Z,127.83
2023-02-15T14:17:10.264Z,124.53
2023-02-15T14:19:46.845Z,126.03
2023-02-15T14:22:25.045Z,125.63
2023-02-15T14:25:07.976Z,125.10
2023-02-15T14:27:53.170Z,131.00
2023-02-15T14:30:23.337Z,118.67
2023-02-15T14:32:54.926Z,119.83
2023-02-15T14:35:28.800Z,132.77
2023-02-15T14:38:02.563Z,116.20
2023-02-15T14:40:57.940Z,129.37
2023-02-15T14:43:35.853Z,120.70
2023-02-15T14:46:10.791Z,128.20
2023-02-15T14:48:44.525Z,135.53
2023-02-15T14:51:52.228Z,128.37
2023-02-15T14:54:56.944Z,124.27
2023-02-15T14:57:34.742Z,120.40
2023-02-15T15:00:25.929Z,119.20
2023-02-15T15:02:55.426Z,119.13
2023-02-15T15:05:30.206Z,128.17
2023-02-15T15:08:00.286Z,137.83
2023-02-15T15:10:47.842Z,137.17
2023-02-15T15:13:39.095Z,129.67
2023-02-15T15:16:27.698Z,123.67
2023-02-15T15:18:56.095Z,123.10
2023-02-15T15:21:56.153Z,129.10
2023-02-15T15:24:53.272Z,126.00
2023-02-15T15:27:51.652Z,131.23
2023-02-15T15:31:02.081Z,115.43
2023-02-15T15:34:16.339Z,116.80
2023-02-15T15:37:32.648Z,111.03
2023-02-15T15:40:40.053Z,122.67
2023-02-15T15:43:47.859Z,126.20
2023-02-15T15:46:32.869Z,124.43
2023-02-15T15:49:03.566Z,124.40
2023-02-15T15:51:34.106Z,137.33
2023-02-15T15:54:04.113Z,133.83
2023-02-15T15:56:35.490Z,135.93
2023-02-15T15:59:07.964Z,131.90
2023-02-15T16:01:41.550Z,138.17
2023-02-15T16:04:14.498Z,137.57
2023-02-15T16:06:42.855Z,129.53
2023-02-15T16:09:18.305Z,124.43
2023-02-15T16:11:47.464Z,128.87
2023-02-15T16:14:19.226Z,124.07
2023-02-15T16:16:53.398Z,130.77
2023-02-15T16:19:26.121Z,133.30
2023-02-15T16:21:54.729Z,140.67
2023-02-15T16:24:43.440Z,139.53
2023-02-15T16:27:24.777Z,126.90
2023-02-15T16:29:53.865Z,126.23
2023-02-15T16:32:24.186Z,134.83
2023-02-15T16:34:57.063Z,127.70
2023-02-15T16:37:28.099Z,137.80
2023-02-15T16:39:57.062Z,135.80
2023-02-15T16:42:26.036Z,127.57
2023-02-15T16:45:03.645Z,121.43
2023-02-15T16:47:35.430Z,123.93
2023-02-15T16:50:06.108Z,115.77
2023-02-15T16:52:34.217Z,123.23
2023-02-15T16:55:03.996Z,118.97
2023-02-15T16:57:36.786Z,110.40
2023-02-15T17:00:09.124Z,105.10
2023-02-15T17:02:55.024Z,101.17
2023-02-15T17:05:24.406Z,93.67
2023-02-15T17:08:06.576Z,95.50
2023-02-15T17:10:37.184Z,86.47
2023-02-15T17:13:11.598Z,85.33
2023-02-15T17:15:42.638Z,73.87
2023-02-15T17:18:17.446Z,74.07
2023-02-15T17:20:46.873Z,76.90
2023-02-15T17:23:27.634Z,70.77
2023-02-15T17:25:55.736Z,72.03
2023-02-15T17:28:26.315Z,64.77
2023-02-15T17:30:56.987Z,70.80
2023-02-15T17:33:29.945Z,65.23
2023-02-15T17:36:09.744Z,62.47
2023-02-15T17:38:39.167Z,65.53
2023-02-15T17:41:07.221Z,60.27
2023-02-15T17:43:34.855Z,61.80
2023-02-15T17:46:04.043Z,59.27
2023-02-15T17:48:34.147Z,56.33
2023-02-15T17:51:03.807Z,56.43
2023-02-15T17:53:32.265Z,55.20
2023-02-15T17:55:59.009Z,58.27
2023-02-15T17:58:26.753Z,59.03
2023-02-15T18:01:15.829Z,49.87
2023-02-15T18:04:05.858Z,46.37
2023-02-15T18:06:51.966Z,48.57
2023-02-15T18:09:39.056Z,50.20
2023-02-15T18:12:20.347Z,45.37
2023-02-15T18:14:48.175Z,44.03
2023-02-15T18:17:17.385Z,50.23
2023-02-15T18:19:47.619Z,59.93
2023-02-15T18:22:17.882Z,51.40
2023-02-15T18:24:46.287Z,54.67
2023-02-15T18:27:15.174Z,56.73
2023-02-15T18:29:43.289Z,53.00
2023-02-15T18:32:18.699Z,57.57
2023-02-15T18:34:49.400Z,54.10
2023-02-15T18:37:20.584Z,52.30
2023-02-15T18:39:49.378Z,58.43
2023-02-15T18:42:21.774Z,50.10
2023-02-15T18:44:50.162Z,56.90
2023-02-15T18:47:17.827Z,52.40
2023-02-15T18:49:45.458Z,58.67
2023-02-15T18:52:17.652Z,57.10
2023-02-15T18:54:46.157Z,57.83
2023-02-15T18:57:15.806Z,53.90
2023-02-15T18:59:44.030Z,59.20
2023-02-15T19:02:14.382Z,61.63
2023-02-15T19:04:42.633Z,60.67
2023-02-15T19:07:18.806Z,57.10
2023-02-15T19:09:49.088Z,64.67
2023-02-15T19:12:17.104Z,53.93
2023-02-15T19:14:44.921Z,60.50
2023-02-15T19:17:16.501Z,59.80
2023-02-15T19:19:44.497Z,57.97
2023-02-15T19:22:14.878Z,58.43
2023-02-15T19:24:46.551Z,55.93
2023-02-15T19:27:22.436Z,54.00
2023-02-15T19:29:50.953Z,56.37
2023-02-15T19:32:18.823Z,55.83
2023-02-15T19:34:46.440Z,57.37
2023-02-15T19:37:23.997Z,56.43
2023-02-15T19:39:53.693Z,53.37
2023-02-15T19:42:24.293Z,52.60
2023-02-15T19:44:54.337Z,55.03
2023-02-15T19:47:22.816Z,58.70
2023-02-15T19:49:50.596Z,56.80
2023-02-15T19:52:20.439Z,54.80
2023-02-15T19:54:49.550Z,56.47
2023-02-15T19:57:19.294Z,53.23
2023-02-15T19:59:47.051Z,51.63
2023-02-15T20:02:15.724Z,58.70
2023-02-15T20:04:43.532Z,58.30
2023-02-15T20:07:19.979Z,60.23
2023-02-15T20:09:47.749Z,57.60
2023-02-15T20:12:21.806Z,53.67
2023-02-15T20:14:49.497Z,58.33
2023-02-15T20:17:17.232Z,58.97
2023-02-15T20:19:46.057Z,52.47
2023-02-15T20:22:21.648Z,51.87
2023-02-15T20:24:49.324Z,50.60
2023-02-15T20:27:20.918Z,54.97
2023-02-15T20:29:50.316Z,48.03
2023-02-15T20:32:18.139Z,57.10
2023-02-15T20:34:45.857Z,45.53
2023-02-15T20:37:22.468Z,48.47
2023-02-15T20:39:50.125Z,49.80
2023-02-15T20:42:19.857Z,50.63
2023-02-15T20:44:47.687Z,47.83
2023-02-15T20:47:15.308Z,48.10
2023-02-15T20:49:42.968Z,48.80
2023-02-15T20:52:20.017Z,48.20
2023-02-15T20:54:47.939Z,47.57
2023-02-15T20:57:16.545Z,52.47
2023-02-15T20:59:46.115Z,52.37
2023-02-15T21:02:18.840Z,46.80
2023-02-15T21:04:47.509Z,47.93
2023-02-15T21:07:15.900Z,46.37
2023-02-15T21:09:43.564Z,50.13
2023-02-15T21:12:14.506Z,49.63
2023-02-15T21:14:42.397Z,49.33
2023-02-15T21:17:13.814Z,49.47
2023-02-15T21:19:41.611Z,48.30
2023-02-15T21:22:12.881Z,50.70
2023-02-15T21:24:45.490Z,49.33
2023-02-15T21:27:14.020Z,50.73
2023-02-15T21:29:41.663Z,47.63
2023-02-15T21:32:10.928Z,51.17
2023-02-15T21:34:40.876Z,45.40
2023-02-15T21:37:26.512Z,40.40
2023-02-15T21:39:54.327Z,41.60
2023-02-15T21:42:35.964Z,48.20
2023-02-15T21:45:21.845Z,43.30
2023-02-15T21:47:52.341Z,44.13
2023-02-15T21:50:41.342Z,42.97
2023-02-15T21:53:13.611Z,38.97
2023-02-15T21:55:41.318Z,41.50
2023-02-15T21:58:19.318Z,44.43
2023-02-15T22:00:47.040Z,42.47
2023-02-15T22:03:14.775Z,49.73
2023-02-15T22:05:43.860Z,45.00
2023-02-15T22:08:14.006Z,48.17
2023-02-15T22:10:43.038Z,51.83
2023-02-15T22:13:15.464Z,48.03
2023-02-15T22:15:43.503Z,49.73
2023-02-15T22:18:21.486Z,49.33
2023-02-15T22:20:50.708Z,42.77
2023-02-15T22:23:18.370Z,49.03
2023-02-15T22:25:50.345Z,43.60
2023-02-15T22:28:18.104Z,48.87
2023-02-15T22:30:46.394Z,44.40
2023-02-15T22:33:24.466Z,54.47
2023-02-15T22:35:53.533Z,41.90
2023-02-15T22:38:21.277Z,47.27
2023-02-15T22:40:50.740Z,48.63
2023-02-15T22:43:28.814Z,51.07
2023-02-15T22:46:00.473Z,46.27
2023-02-15T22:48:28.597Z,43.57
2023-02-15T22:50:57.960Z,55.50
2023-02-15T22:53:25.692Z,47.43
2023-02-15T22:55:53.988Z,48.63
2023-02-15T22:58:24.671Z,50.57
2023-02-15T23:00:52.703Z,50.33
2023-02-15T23:03:23.074Z,43.97
2023-02-15T23:05:51.341Z,45.23
2023-02-15T23:08:20.291Z,49.13
2023-02-15T23:10:54.335Z,46.10
2023-02-15T23:13:26.132Z,49.00
2023-02-15T23:15:57.421Z,47.73
2023-02-15T23:18:28.663Z,47.10
2023-02-15T23:20:58.799Z,43.27
2023-02-15T23:23:33.988Z,42.23
2023-02-15T23:26:04.194Z,41.93
2023-02-15T23:28:36.203Z,38.97
2023-02-15T23:31:10.640Z,39.43
2023-02-15T23:33:38.384Z,40.37
2023-02-15T23:36:06.402Z,41.13
2023-02-15T23:38:35.466Z,42.53
2023-02-15T23:41:18.998Z,41.03
2023-02-15T23:43:49.952Z,40.20
2023-02-15T23:46:30.653Z,39.87
2023-02-15T23:48:58.381Z,42.33
2023-02-15T23:51:30.538Z,38.90
2023-02-15T23:53:59.683Z,41.63
2023-02-15T23:56:27.405Z,39.10
2023-02-15T23:58:55.541Z,43.53
